createdAt,value
2019-06-15T00:00:28.984Z,5.73
2019-06-15T00:02:57.423Z,5.20
2019-06-15T00:05:25.934Z,4.40
2019-06-15T00:07:54.842Z,5.00
2019-06-15T00:10:23.276Z,5.47
2019-06-15T00:12:51.719Z,3.30
2019-06-15T00:15:20.153Z,7.60
2019-06-15T00:17:48.604Z,3.97
2019-06-15T00:20:17.899Z,3.60
2019-06-15T00:22:46.743Z,9.47
2019-06-15T00:25:15.184Z,4.33
2019-06-15T00:27:43.621Z,4.73
2019-06-15T00:30:13.389Z,5.93
2019-06-15T00:32:41.834Z,3.67
2019-06-15T00:35:10.401Z,2.60
2019-06-15T00:37:38.834Z,2.70
2019-06-15T00:40:08.346Z,7.87
2019-06-15T00:42:36.785Z,5.67
2019-06-15T00:45:06.452Z,4.13
2019-06-15T00:47:34.981Z,5.37
2019-06-15T00:50:04.226Z,7.50
2019-06-15T00:52:32.725Z,4.03
2019-06-15T00:55:01.594Z,2.70
2019-06-15T00:57:30.482Z,2.60
2019-06-15T00:59:58.981Z,7.70
2019-06-15T01:02:27.537Z,5.17
2019-06-15T01:04:55.968Z,6.83
2019-06-15T01:07:24.421Z,3.20
2019-06-15T01:09:52.863Z,3.67
2019-06-15T01:12:21.973Z,2.80
2019-06-15T01:14:50.419Z,4.17
2019-06-15T01:17:18.964Z,3.03
2019-06-15T01:19:47.718Z,8.00
2019-06-15T01:22:16.155Z,3.53
2019-06-15T01:24:44.587Z,8.37
2019-06-15T01:27:13.037Z,7.63
2019-06-15T01:29:42.365Z,6.47
2019-06-15T01:32:10.789Z,6.30
2019-06-15T01:34:39.238Z,8.03
2019-06-15T01:37:07.681Z,8.37
2019-06-15T01:39:36.125Z,5.73
2019-06-15T01:42:05.357Z,7.10
2019-06-15T01:44:34.158Z,5.53
2019-06-15T01:47:02.633Z,6.77
2019-06-15T01:49:31.425Z,7.17
2019-06-15T01:51:59.848Z,5.57
2019-06-15T01:54:29.096Z,6.80
2019-06-15T01:56:57.533Z,5.70
2019-06-15T01:59:25.974Z,7.50
2019-06-15T02:01:54.422Z,7.33
2019-06-15T02:04:22.860Z,9.30
2019-06-15T02:06:51.600Z,3.17
2019-06-15T02:09:20.109Z,5.70
2019-06-15T02:11:48.561Z,7.87
2019-06-15T02:14:17.023Z,6.93
2019-06-15T02:16:45.470Z,5.03
2019-06-15T02:19:14.603Z,5.77
2019-06-15T02:21:43.049Z,6.23
2019-06-15T02:24:11.510Z,4.03
2019-06-15T02:26:40.041Z,5.93
2019-06-15T02:29:08.591Z,6.23
2019-06-15T02:31:37.410Z,4.63
2019-06-15T02:34:06.312Z,6.77
2019-06-15T02:36:34.767Z,6.10
2019-06-15T02:39:05.611Z,7.27
2019-06-15T02:41:34.117Z,7.07
2019-06-15T02:44:02.568Z,6.50
2019-06-15T02:46:31.004Z,5.83
2019-06-15T02:48:59.450Z,11.00
2019-06-15T02:51:28.215Z,9.17
2019-06-15T02:53:56.648Z,5.73
2019-06-15T02:56:25.495Z,3.70
2019-06-15T02:58:53.921Z,5.50
2019-06-15T03:01:22.371Z,7.50
2019-06-15T03:03:50.853Z,7.87
2019-06-15T03:06:19.718Z,14.43
2019-06-15T03:08:48.539Z,13.40
2019-06-15T03:11:16.975Z,8.07
2019-06-15T03:13:45.524Z,12.03
2019-06-15T03:16:14.034Z,14.57
2019-06-15T03:18:42.474Z,9.97
2019-06-15T03:21:10.918Z,12.17
2019-06-15T03:23:39.354Z,10.50
2019-06-15T03:26:07.793Z,9.07
2019-06-15T03:28:36.272Z,14.40
2019-06-15T03:31:04.734Z,12.07
2019-06-15T03:33:33.195Z,12.10
2019-06-15T03:36:01.648Z,12.23
2019-06-15T03:38:30.076Z,13.90
2019-06-15T03:40:58.530Z,14.07
2019-06-15T03:43:26.995Z,11.90
2019-06-15T03:45:55.526Z,11.97
2019-06-15T03:48:23.951Z,8.27
2019-06-15T03:50:52.393Z,8.57
2019-06-15T03:53:20.861Z,10.40
2019-06-15T03:55:49.302Z,6.63
2019-06-15T03:58:17.725Z,6.07
2019-06-15T04:00:48.218Z,9.20
2019-06-15T04:03:16.832Z,6.30
2019-06-15T04:05:46.213Z,6.57
2019-06-15T04:08:14.793Z,5.23
2019-06-15T04:10:43.228Z,5.67
2019-06-15T04:13:11.694Z,8.33
2019-06-15T04:15:40.135Z,8.13
2019-06-15T04:18:08.557Z,6.77
2019-06-15T04:20:37.012Z,5.17
2019-06-15T04:23:05.875Z,9.20
2019-06-15T04:25:34.478Z,7.87
2019-06-15T04:28:02.902Z,7.00
2019-06-15T04:30:31.359Z,5.40
2019-06-15T04:32:59.793Z,8.57
2019-06-15T04:35:28.225Z,4.57
2019-06-15T04:37:57.065Z,5.27
2019-06-15T04:40:25.547Z,5.23
2019-06-15T04:42:53.973Z,9.20
2019-06-15T04:45:22.428Z,5.03
2019-06-15T04:47:50.862Z,8.83
2019-06-15T04:50:19.356Z,6.50
2019-06-15T04:52:47.780Z,3.93
2019-06-15T04:55:16.244Z,8.07
2019-06-15T04:57:44.747Z,7.77
2019-06-15T05:00:13.378Z,8.00
2019-06-15T05:02:41.789Z,7.50
2019-06-15T05:05:11.362Z,6.23
2019-06-15T05:07:39.786Z,6.20
2019-06-15T05:10:08.383Z,6.20
2019-06-15T05:12:36.831Z,7.37
2019-06-15T05:15:07.534Z,4.03
2019-06-15T05:17:35.990Z,5.20
2019-06-15T05:20:07.546Z,5.37
2019-06-15T05:22:35.989Z,6.00
2019-06-15T05:25:06.669Z,9.33
2019-06-15T05:27:35.201Z,9.03
2019-06-15T05:30:07.940Z,6.10
2019-06-15T05:32:36.390Z,5.87
2019-06-15T05:35:08.134Z,3.93
2019-06-15T05:37:36.561Z,5.57
2019-06-15T05:40:06.151Z,6.00
2019-06-15T05:42:34.605Z,5.50
2019-06-15T05:45:03.922Z,4.50
2019-06-15T05:47:32.354Z,9.47
2019-06-15T05:50:00.776Z,4.53
2019-06-15T05:52:29.205Z,6.43
2019-06-15T05:54:57.645Z,4.43
2019-06-15T05:57:26.062Z,6.27
2019-06-15T05:59:54.802Z,4.13
2019-06-15T06:02:24.878Z,7.10
2019-06-15T06:04:53.738Z,3.70
2019-06-15T06:07:22.244Z,4.37
2019-06-15T06:09:50.666Z,5.30
2019-06-15T06:12:19.452Z,5.10
2019-06-15T06:14:49.911Z,5.43
2019-06-15T06:17:18.365Z,6.03
2019-06-15T06:19:46.846Z,7.53
2019-06-15T06:22:15.300Z,6.00
2019-06-15T06:24:43.741Z,6.63
2019-06-15T06:27:12.183Z,3.00
2019-06-15T06:29:40.625Z,4.03
2019-06-15T06:32:09.052Z,8.73
2019-06-15T06:34:37.488Z,5.70
2019-06-15T06:37:05.932Z,6.93
2019-06-15T06:39:34.429Z,6.27
2019-06-15T06:42:02.877Z,4.50
2019-06-15T06:44:31.317Z,12.27
2019-06-15T06:46:59.770Z,4.70
2019-06-15T06:49:28.233Z,5.03
2019-06-15T06:51:57.098Z,7.37
2019-06-15T06:54:25.525Z,3.53
2019-06-15T06:56:54.344Z,3.53
2019-06-15T06:59:22.781Z,5.50
2019-06-15T07:01:51.227Z,4.90
2019-06-15T07:04:19.648Z,7.57
2019-06-15T07:06:48.361Z,7.73
2019-06-15T07:09:17.163Z,4.00
2019-06-15T07:11:45.608Z,2.93
2019-06-15T07:14:14.045Z,3.60
2019-06-15T07:16:42.568Z,5.50
2019-06-15T07:19:11.176Z,6.20
2019-06-15T07:21:39.842Z,5.77
2019-06-15T07:24:11.209Z,3.37
2019-06-15T07:26:39.669Z,2.23
2019-06-15T07:29:08.488Z,2.17
2019-06-15T07:31:36.907Z,3.80
2019-06-15T07:34:05.354Z,1.67
2019-06-15T07:36:33.777Z,3.17
2019-06-15T07:39:02.235Z,2.67
2019-06-15T07:41:30.673Z,3.63
2019-06-15T07:43:59.113Z,3.10
2019-06-15T07:46:27.822Z,2.77
2019-06-15T07:48:56.266Z,2.67
2019-06-15T07:51:24.705Z,1.37
2019-06-15T07:53:53.145Z,1.77
2019-06-15T07:56:21.582Z,5.43
2019-06-15T07:58:50.041Z,1.23
2019-06-15T08:01:18.698Z,1.73
2019-06-15T08:03:47.507Z,2.47
2019-06-15T08:06:15.955Z,1.87
2019-06-15T08:08:44.389Z,1.50
2019-06-15T08:11:12.832Z,2.20
2019-06-15T08:13:41.283Z,3.07
2019-06-15T08:16:09.770Z,4.53
2019-06-15T08:18:38.353Z,2.20
2019-06-15T08:21:06.822Z,2.80
2019-06-15T08:23:35.250Z,3.50
2019-06-15T08:26:03.695Z,1.07
2019-06-15T08:28:40.348Z,1.60
2019-06-15T08:31:02.375Z,2.40
2019-06-15T08:33:30.957Z,1.77
2019-06-15T08:36:02.213Z,4.70
2019-06-15T08:38:29.590Z,1.67
2019-06-15T08:40:58.062Z,2.10
2019-06-15T08:43:26.513Z,3.53
2019-06-15T08:45:54.946Z,4.80
2019-06-15T08:48:23.384Z,2.90
2019-06-15T08:50:51.821Z,2.33
2019-06-15T08:53:20.265Z,2.97
2019-06-15T08:55:48.693Z,2.83
2019-06-15T08:58:17.145Z,3.50
2019-06-15T09:00:45.919Z,4.13
2019-06-15T09:03:14.356Z,2.73
2019-06-15T09:05:42.785Z,2.37
2019-06-15T09:08:11.298Z,3.63
2019-06-15T09:10:39.769Z,4.43
2019-06-15T09:13:08.205Z,1.63
2019-06-15T09:15:39.735Z,4.50
2019-06-15T09:18:08.175Z,3.73
2019-06-15T09:20:36.626Z,2.33
2019-06-15T09:23:05.067Z,3.13
2019-06-15T09:25:36.679Z,3.13
2019-06-15T09:28:03.680Z,3.77
2019-06-15T09:30:32.257Z,1.53
2019-06-15T09:33:00.687Z,4.23
2019-06-15T09:35:29.174Z,2.30
2019-06-15T09:37:57.697Z,4.50
2019-06-15T09:40:26.290Z,3.87
2019-06-15T09:42:54.727Z,3.60
2019-06-15T09:45:23.242Z,7.83
2019-06-15T09:47:51.672Z,2.97
2019-06-15T09:50:20.468Z,1.87
2019-06-15T09:52:48.894Z,1.53
2019-06-15T09:55:17.414Z,1.70
2019-06-15T09:57:45.864Z,2.57
2019-06-15T10:00:15.396Z,1.47
2019-06-15T10:02:43.825Z,2.50
2019-06-15T10:05:12.836Z,2.07
2019-06-15T10:07:41.625Z,2.40
2019-06-15T10:10:10.781Z,2.10
2019-06-15T10:12:39.281Z,1.67
2019-06-15T10:15:09.641Z,2.40
2019-06-15T10:17:38.455Z,1.33
2019-06-15T10:20:07.630Z,4.27
2019-06-15T10:22:36.147Z,2.07
2019-06-15T10:25:06.254Z,1.33
2019-06-15T10:27:34.925Z,1.33
2019-06-15T10:30:05.318Z,3.60
2019-06-15T10:32:33.762Z,1.63
2019-06-15T10:35:02.287Z,1.00
2019-06-15T10:37:30.774Z,1.30
2019-06-15T10:39:59.248Z,1.37
2019-06-15T10:42:27.675Z,0.87
2019-06-15T10:44:56.097Z,1.33
2019-06-15T10:47:24.524Z,1.30
2019-06-15T10:49:53.289Z,3.80
2019-06-15T10:52:21.778Z,2.60
2019-06-15T10:54:50.221Z,0.90
2019-06-15T10:57:18.697Z,1.07
2019-06-15T10:59:56.900Z,1.57
2019-06-15T11:02:17.312Z,1.13
2019-06-15T11:04:45.757Z,2.60
2019-06-15T11:07:14.196Z,2.77
2019-06-15T11:09:42.641Z,0.80
2019-06-15T11:12:11.098Z,0.90
2019-06-15T11:14:39.540Z,3.03
2019-06-15T11:17:07.986Z,1.87
2019-06-15T11:19:36.430Z,1.07
2019-06-15T11:22:04.848Z,1.23
2019-06-15T11:24:33.269Z,1.43
2019-06-15T11:27:01.711Z,1.73
2019-06-15T11:29:30.158Z,2.60
2019-06-15T11:31:58.928Z,1.43
2019-06-15T11:34:27.357Z,1.00
2019-06-15T11:36:56.314Z,11.23
2019-06-15T11:39:24.739Z,1.00
2019-06-15T11:41:53.262Z,5.70
2019-06-15T11:44:21.728Z,3.37
2019-06-15T11:46:50.551Z,1.37
2019-06-15T11:49:19.316Z,1.70
2019-06-15T11:51:47.737Z,1.97
2019-06-15T11:54:16.169Z,1.50
2019-06-15T11:56:44.722Z,1.60
2019-06-15T11:59:13.161Z,2.73
2019-06-15T12:01:41.607Z,3.20
2019-06-15T12:04:10.053Z,1.40
2019-06-15T12:06:38.513Z,2.60
2019-06-15T12:09:08.085Z,2.13
2019-06-15T12:11:36.569Z,1.10
2019-06-15T12:14:05.064Z,1.10
2019-06-15T12:16:33.509Z,1.10
2019-06-15T12:19:01.955Z,1.30
2019-06-15T12:21:30.695Z,1.47
2019-06-15T12:23:59.166Z,1.87
2019-06-15T12:26:27.954Z,1.30
2019-06-15T12:28:56.389Z,0.90
2019-06-15T12:31:24.847Z,1.17
2019-06-15T12:33:53.278Z,0.90
2019-06-15T12:36:22.487Z,1.37
2019-06-15T12:38:50.947Z,1.40
2019-06-15T12:41:19.475Z,0.93
2019-06-15T12:43:47.919Z,0.90
2019-06-15T12:46:16.387Z,0.90
2019-06-15T12:48:44.839Z,1.00
2019-06-15T12:51:13.413Z,1.47
2019-06-15T12:53:41.866Z,1.97
2019-06-15T12:56:10.730Z,12.20
2019-06-15T12:58:39.261Z,1.60
2019-06-15T13:01:07.699Z,1.83
2019-06-15T13:03:36.142Z,2.50
2019-06-15T13:06:04.966Z,0.90
2019-06-15T13:08:33.432Z,1.37
2019-06-15T13:11:02.223Z,1.80
2019-06-15T13:13:30.712Z,1.20
2019-06-15T13:15:59.181Z,1.17
2019-06-15T13:18:27.630Z,1.10
2019-06-15T13:20:56.061Z,1.13
2019-06-15T13:23:24.501Z,0.90
2019-06-15T13:25:52.922Z,1.07
2019-06-15T13:28:21.377Z,0.90
2019-06-15T13:30:49.830Z,1.00
2019-06-15T13:33:18.298Z,1.10
2019-06-15T13:35:46.744Z,1.00
2019-06-15T13:38:15.185Z,1.20
2019-06-15T13:40:43.627Z,0.90
2019-06-15T13:43:12.098Z,0.90
2019-06-15T13:45:40.595Z,1.80
2019-06-15T13:48:11.631Z,1.00
2019-06-15T13:50:39.551Z,0.90
2019-06-15T13:53:08.060Z,0.90
2019-06-15T13:55:36.481Z,1.50
2019-06-15T13:58:04.914Z,1.80
2019-06-15T14:00:33.385Z,2.20
2019-06-15T14:03:01.826Z,1.27
2019-06-15T14:05:30.262Z,1.33
2019-06-15T14:07:58.722Z,0.87
2019-06-15T14:10:27.200Z,1.10
2019-06-15T14:12:55.656Z,1.17
2019-06-15T14:15:24.123Z,1.40
2019-06-15T14:17:52.544Z,1.90
2019-06-15T14:20:21.396Z,1.30
2019-06-15T14:22:49.840Z,1.10
2019-06-15T14:25:18.348Z,1.20
2019-06-15T14:27:46.806Z,1.07
2019-06-15T14:30:16.649Z,1.20
2019-06-15T14:32:45.203Z,0.83
2019-06-15T14:35:14.111Z,0.90
2019-06-15T14:37:42.918Z,1.90
2019-06-15T14:40:11.988Z,1.10
2019-06-15T14:42:40.713Z,0.80
2019-06-15T14:45:11.202Z,1.20
2019-06-15T14:47:39.650Z,1.20
2019-06-15T14:50:08.613Z,6.17
2019-06-15T14:52:37.061Z,1.90
2019-06-15T14:55:07.222Z,0.90
2019-06-15T14:57:36.367Z,1.10
2019-06-15T15:00:08.805Z,1.10
2019-06-15T15:02:37.340Z,1.47
2019-06-15T15:05:07.982Z,1.27
2019-06-15T15:07:36.922Z,1.20
2019-06-15T15:10:07.913Z,1.20
2019-06-15T15:12:36.945Z,1.07
2019-06-15T15:15:09.306Z,3.77
2019-06-15T15:17:37.730Z,1.10
2019-06-15T15:20:07.430Z,1.10
2019-06-15T15:22:37.161Z,1.23
2019-06-15T15:25:07.668Z,2.60
2019-06-15T15:27:37.388Z,1.53
2019-06-15T15:30:09.033Z,6.73
2019-06-15T15:32:37.797Z,1.10
2019-06-15T15:35:07.486Z,1.70
2019-06-15T15:37:37.155Z,2.07
2019-06-15T15:40:07.450Z,2.80
2019-06-15T15:42:37.160Z,0.93
2019-06-15T15:45:07.459Z,1.27
2019-06-15T15:47:36.442Z,1.30
2019-06-15T15:50:08.278Z,3.63
2019-06-15T15:52:37.479Z,1.47
2019-06-15T15:55:30.898Z,1.40
2019-06-15T15:57:59.695Z,1.10
2019-06-15T16:00:36.972Z,1.63
2019-06-15T16:03:06.990Z,1.33
2019-06-15T16:05:37.139Z,1.33
2019-06-15T16:08:06.630Z,0.97
2019-06-15T16:10:37.472Z,1.10
2019-06-15T16:13:06.479Z,1.23
2019-06-15T16:15:37.243Z,1.00
2019-06-15T16:18:06.791Z,1.10
2019-06-15T16:20:37.046Z,1.57
2019-06-15T16:23:07.554Z,1.13
2019-06-15T16:25:37.174Z,1.00
2019-06-15T16:28:07.039Z,1.30
2019-06-15T16:30:59.551Z,1.27
2019-06-15T16:33:07.778Z,2.50
2019-06-15T16:35:36.467Z,1.33
2019-06-15T16:38:06.845Z,1.23
2019-06-15T16:40:39.904Z,1.37
2019-06-15T16:43:08.950Z,1.07
2019-06-15T16:45:37.869Z,1.07
2019-06-15T16:48:06.568Z,1.10
2019-06-15T16:50:36.804Z,1.30
2019-06-15T16:53:05.760Z,1.20
2019-06-15T16:55:36.566Z,1.67
2019-06-15T16:58:07.110Z,1.47
2019-06-15T17:00:36.440Z,1.00
2019-06-15T17:03:19.864Z,1.53
2019-06-15T17:05:36.257Z,1.33
2019-06-15T17:08:07.011Z,1.93
2019-06-15T17:10:40.580Z,1.73
2019-06-15T17:13:09.878Z,1.40
2019-06-15T17:15:39.210Z,1.60
2019-06-15T17:18:07.980Z,3.23
2019-06-15T17:20:46.602Z,1.40
2019-06-15T17:23:16.396Z,1.40
2019-06-15T17:25:45.268Z,1.00
2019-06-15T17:28:14.186Z,1.27
2019-06-15T17:30:43.686Z,2.20
2019-06-15T17:33:12.551Z,1.30
2019-06-15T17:35:55.094Z,2.40
2019-06-15T17:38:11.481Z,1.13
2019-06-15T17:40:39.915Z,2.40
2019-06-15T17:43:08.364Z,1.47
2019-06-15T17:45:37.648Z,1.00
2019-06-15T17:48:06.635Z,2.20
2019-06-15T17:50:40.847Z,1.40
2019-06-15T17:53:09.290Z,1.10
2019-06-15T17:55:37.906Z,1.20
2019-06-15T17:58:06.907Z,1.33
2019-06-15T18:00:41.246Z,1.70
2019-06-15T18:03:09.723Z,2.60
2019-06-15T18:05:38.253Z,1.30
2019-06-15T18:08:06.850Z,1.30
2019-06-15T18:10:36.266Z,0.97
2019-06-15T18:13:07.072Z,1.63
2019-06-15T18:15:36.347Z,2.27
2019-06-15T18:18:07.131Z,1.83
2019-06-15T18:20:36.412Z,1.10
2019-06-15T18:23:06.064Z,1.30
2019-06-15T18:25:37.071Z,1.30
2019-06-15T18:28:06.400Z,1.40
2019-06-15T18:30:37.111Z,1.37
2019-06-15T18:33:07.047Z,1.67
2019-06-15T18:35:36.110Z,2.77
2019-06-15T18:38:07.185Z,1.63
2019-06-15T18:40:37.187Z,3.07
2019-06-15T18:43:07.298Z,2.83
2019-06-15T18:45:36.132Z,1.67
2019-06-15T18:48:06.278Z,1.73
2019-06-15T18:50:37.660Z,1.67
2019-06-15T18:53:07.274Z,2.23
2019-06-15T18:55:36.755Z,4.03
2019-06-15T18:58:05.793Z,3.60
2019-06-15T19:00:36.852Z,1.63
2019-06-15T19:03:06.870Z,3.90
2019-06-15T19:05:37.402Z,1.67
2019-06-15T19:08:06.792Z,1.50
2019-06-15T19:10:37.402Z,3.53
2019-06-15T19:13:07.366Z,1.57
2019-06-15T19:15:37.295Z,1.40
2019-06-15T19:18:07.466Z,2.03
2019-06-15T19:20:37.233Z,2.13
2019-06-15T19:23:07.200Z,1.73
2019-06-15T19:25:36.557Z,1.50
2019-06-15T19:28:06.025Z,2.10
2019-06-15T19:30:37.125Z,2.20
2019-06-15T19:33:05.098Z,2.40
2019-06-15T19:35:36.338Z,3.40
2019-06-15T19:38:06.279Z,2.03
2019-06-15T19:40:37.607Z,2.43
2019-06-15T19:43:06.616Z,1.90
2019-06-15T19:45:37.025Z,3.57
2019-06-15T19:48:06.650Z,3.60
2019-06-15T19:50:36.538Z,4.00
2019-06-15T19:53:07.155Z,5.73
2019-06-15T19:55:36.171Z,4.93
2019-06-15T19:58:07.278Z,3.07
2019-06-15T20:00:36.417Z,2.47
2019-06-15T20:03:07.033Z,2.43
2019-06-15T20:05:36.989Z,3.20
2019-06-15T20:08:06.996Z,2.63
2019-06-15T20:10:37.006Z,2.50
2019-06-15T20:13:07.143Z,2.70
2019-06-15T20:15:37.715Z,2.63
2019-06-15T20:18:07.012Z,2.63
2019-06-15T20:20:36.906Z,2.73
2019-06-15T20:23:07.263Z,3.77
2019-06-15T20:25:36.877Z,3.50
2019-06-15T20:28:07.130Z,2.20
2019-06-15T20:30:36.990Z,2.67
2019-06-15T20:33:07.877Z,3.43
2019-06-15T20:35:36.161Z,2.77
2019-06-15T20:38:04.886Z,2.47
2019-06-15T20:40:33.458Z,7.43
2019-06-15T20:43:01.987Z,4.13
2019-06-15T20:45:31.638Z,2.60
2019-06-15T20:48:00.229Z,3.73
2019-06-15T20:50:28.740Z,3.33
2019-06-15T20:52:57.669Z,2.30
2019-06-15T20:55:26.619Z,4.40
2019-06-15T20:57:56.845Z,3.57
2019-06-15T21:00:26.257Z,2.23
2019-06-15T21:02:56.168Z,2.20
2019-06-15T21:05:36.898Z,6.30
2019-06-15T21:07:57.364Z,2.57
2019-06-15T21:10:26.375Z,2.67
2019-06-15T21:12:54.998Z,5.03
2019-06-15T21:15:26.498Z,2.47
2019-06-15T21:17:59.051Z,3.03
2019-06-15T21:20:27.493Z,3.27
2019-06-15T21:22:57.245Z,3.17
2019-06-15T21:25:26.439Z,2.53
2019-06-15T21:27:56.724Z,2.40
2019-06-15T21:30:27.105Z,2.73
2019-06-15T21:32:56.135Z,4.50
2019-06-15T21:35:26.795Z,3.87
2019-06-15T21:37:57.141Z,3.77
2019-06-15T21:40:27.326Z,2.50
2019-06-15T21:42:56.748Z,2.77
2019-06-15T21:45:25.221Z,2.60
2019-06-15T21:47:56.076Z,2.00
2019-06-15T21:50:26.676Z,2.50
2019-06-15T21:52:56.414Z,2.63
2019-06-15T21:55:26.735Z,2.90
2019-06-15T21:57:56.374Z,4.80
2019-06-15T22:00:32.100Z,2.50
2019-06-15T22:03:01.495Z,4.23
2019-06-15T22:05:30.081Z,2.67
2019-06-15T22:07:58.598Z,8.30
2019-06-15T22:10:27.039Z,3.00
2019-06-15T22:12:57.214Z,2.67
2019-06-15T22:15:26.527Z,2.70
2019-06-15T22:17:55.420Z,6.00
2019-06-15T22:20:26.279Z,5.97
2019-06-15T22:22:54.448Z,2.60
2019-06-15T22:25:22.879Z,2.33
2019-06-15T22:27:51.604Z,7.33
2019-06-15T22:30:20.594Z,2.80
2019-06-15T22:32:49.017Z,4.57
2019-06-15T22:35:17.638Z,4.27
2019-06-15T22:37:46.761Z,3.27
2019-06-15T22:40:16.602Z,2.97
2019-06-15T22:42:47.003Z,3.60
2019-06-15T22:45:17.329Z,2.93
2019-06-15T22:47:46.766Z,3.30
2019-06-15T22:50:16.115Z,3.20
2019-06-15T22:52:47.168Z,3.97
2019-06-15T22:55:16.541Z,3.50
2019-06-15T22:57:46.119Z,3.80
2019-06-15T23:00:17.114Z,3.63
2019-06-15T23:02:46.177Z,3.43
2019-06-15T23:05:17.144Z,3.83
2019-06-15T23:07:47.185Z,5.00
2019-06-15T23:10:16.770Z,3.60
2019-06-15T23:12:46.410Z,3.30
2019-06-15T23:15:17.446Z,5.03
2019-06-15T23:17:46.629Z,3.47
2019-06-15T23:20:17.242Z,3.03
2019-06-15T23:22:46.795Z,3.60
2019-06-15T23:25:16.788Z,4.13
2019-06-15T23:27:46.924Z,3.73
2019-06-15T23:30:16.227Z,3.60
2019-06-15T23:32:46.918Z,3.87
2019-06-15T23:35:16.849Z,3.33
2019-06-15T23:37:46.494Z,3.27
2019-06-15T23:40:22.588Z,3.40
2019-06-15T23:42:51.363Z,3.10
2019-06-15T23:45:20.924Z,3.33
2019-06-15T23:47:50.006Z,3.00
2019-06-15T23:50:19.773Z,2.93
2019-06-15T23:52:48.766Z,2.83
2019-06-15T23:55:18.147Z,2.60
2019-06-15T23:57:46.749Z,4.70
